Time,TemperatureF,DewpointF,PressureIn,WindDirection,WindDirectionDegrees,WindSpeedMPH,WindSpeedGustMPH,Humidity,HourlyPrecipIn,Conditions,Clouds,dailyrainin,SoftwareType,DateUTC
2013-06-06 00:00:00,36.0,-99.9,-100.00,NW,325,111.0,-999.0,-999,-99.99,,,0.00,,2013-06-06 06:00:00,
2013-06-06 00:52:00,36.0,-99.9,-100.00,NW,325,111.0,-999.0,-999,-99.99,,,0.00,,2013-06-06 06:52:00,
2013-06-06 01:00:00,37.0,-99.9,-100.00,North,-999,-999.0,-999.0,-999,-99.99,,,0.00,,2013-06-06 07:00:00,
2013-06-06 01:53:00,37.0,-99.9,-100.00,North,-999,-999.0,-999.0,-999,-99.99,,,0.00,,2013-06-06 07:53:00,
2013-06-06 02:00:00,36.0,-99.9,-100.00,NW,313,106.0,-999.0,-999,-99.99,,,0.00,,2013-06-06 08:00:00,
2013-06-06 02:52:00,36.0,-99.9,-100.00,NW,313,106.0,-999.0,-999,-99.99,,,0.00,,2013-06-06 08:52:00,
2013-06-06 03:00:00,38.0,-99.9,-100.00,NW,315,109.0,-999.0,-999,-99.99,,,0.00,,2013-06-06 09:00:00,
2013-06-06 03:53:00,38.0,-99.9,-100.00,NW,315,109.0,-999.0,-999,-99.99,,,0.00,,2013-06-06 09:53:00,
2013-06-06 04:00:00,35.0,-99.9,-100.00,NW,313,108.0,-999.0,-999,-99.99,,,0.00,,2013-06-06 10:00:00,
2013-06-06 04:53:00,35.0,-99.9,-100.00,NW,313,108.0,-999.0,-999,-99.99,,,0.00,,2013-06-06 10:53:00,
2013-06-06 05:00:00,35.0,-99.9,-100.00,WNW,287,107.0,-999.0,-999,-99.99,,,0.00,,2013-06-06 11:00:00,
2013-06-06 05:52:00,35.0,-99.9,-100.00,WNW,287,107.0,-999.0,-999,-99.99,,,0.00,,2013-06-06 11:52:00,
2013-06-06 06:00:00,36.0,-99.9,-100.00,WSW,243,90.0,-999.0,-999,-99.99,,,0.00,,2013-06-06 12:00:00,
2013-06-06 06:53:00,36.0,-99.9,-100.00,WSW,243,90.0,-999.0,-999,-99.99,,,0.00,,2013-06-06 12:53:00,
2013-06-06 07:00:00,49.0,-99.9,-100.00,South,183,74.0,-999.0,-999,-99.99,,,0.00,,2013-06-06 13:00:00,
2013-06-06 07:53:00,49.0,-99.9,-100.00,South,183,74.0,-999.0,-999,-99.99,,,0.00,,2013-06-06 13:53:00,
2013-06-06 08:00:00,52.0,-99.9,-100.00,North,-999,-999.0,-999.0,-999,-99.99,,,0.00,,2013-06-06 14:00:00,
2013-06-06 09:00:00,54.0,-99.9,-100.00,ESE,102,39.0,-999.0,-999,-99.99,,,0.00,,2013-06-06 15:00:00,
2013-06-06 10:00:00,53.0,-99.9,-100.00,East,98,37.0,-999.0,-999,-99.99,,,0.00,,2013-06-06 16:00:00,
2013-06-06 10:53:00,53.0,-99.9,-100.00,East,98,37.0,-999.0,-999,-99.99,,,0.00,,2013-06-06 16:53:00,
2013-06-06 11:00:00,54.0,-99.9,-100.00,East,101,37.0,-999.0,-999,-99.99,,,0.01,,2013-06-06 17:00:00,
2013-06-06 11:53:00,54.0,-99.9,-100.00,East,101,37.0,-999.0,-999,-99.99,,,0.01,,2013-06-06 17:53:00,
2013-06-06 12:00:00,55.0,-99.9,-100.00,ESE,102,42.0,-999.0,-999,-99.99,,,0.00,,2013-06-06 18:00:00,
2013-06-06 12:53:00,55.0,-99.9,-100.00,ESE,102,42.0,-999.0,-999,-99.99,,,0.00,,2013-06-06 18:53:00,
2013-06-06 13:00:00,58.0,-99.9,-100.00,East,97,36.0,-999.0,-999,-99.99,,,0.00,,2013-06-06 19:00:00,
2013-06-06 13:53:00,58.0,-99.9,-100.00,East,97,36.0,-999.0,-999,-99.99,,,0.00,,2013-06-06 19:53:00,
2013-06-06 14:00:00,60.0,-99.9,-100.00,East,95,36.0,-999.0,-999,-99.99,,,0.00,,2013-06-06 20:00:00,
2013-06-06 14:53:00,60.0,-99.9,-100.00,East,95,36.0,-999.0,-999,-99.99,,,0.00,,2013-06-06 20:53:00,
2013-06-06 15:00:00,61.0,-99.9,-100.00,East,93,36.0,-999.0,-999,-99.99,,,0.00,,2013-06-06 21:00:00,
2013-06-06 15:53:00,61.0,-99.9,-100.00,East,93,36.0,-999.0,-999,-99.99,,,0.00,,2013-06-06 21:53:00,
2013-06-06 16:00:00,63.0,-99.9,-100.00,East,92,34.0,-999.0,-999,-99.99,,,0.00,,2013-06-06 22:00:00,
2013-06-06 16:43:00,63.0,-99.9,-100.00,East,92,34.0,-999.0,-999,-99.99,,,0.00,,2013-06-06 22:43:00,
2013-06-06 16:53:00,63.0,-99.9,-100.00,East,92,34.0,-999.0,-999,-99.99,,,0.00,,2013-06-06 22:53:00,
2013-06-06 17:00:00,58.0,-99.9,-100.00,East,100,39.0,-999.0,-999,-99.99,,,0.00,,2013-06-06 23:00:00,
2013-06-06 17:52:00,58.0,-99.9,-100.00,East,100,39.0,-999.0,-999,-99.99,,,0.00,,2013-06-06 23:52:00,
2013-06-06 18:00:00,57.0,-99.9,-100.00,ESE,108,39.0,-999.0,-999,-99.99,,,0.00,,2013-06-07 00:00:00,
2013-06-06 18:52:00,57.0,-99.9,-100.00,ESE,108,39.0,-999.0,-999,-99.99,,,0.00,,2013-06-07 00:52:00,
2013-06-06 19:00:00,54.0,-99.9,-100.00,ESE,120,44.0,-999.0,-999,-99.99,,,-99.99,,2013-06-07 01:00:00,
2013-06-06 19:53:00,54.0,-99.9,-100.00,ESE,120,44.0,-999.0,-999,-99.99,,,-99.99,,2013-06-07 01:53:00,
2013-06-06 20:00:00,50.0,-99.9,-100.00,SSE,147,54.0,-999.0,-999,-99.99,,,-99.99,,2013-06-07 02:00:00,
2013-06-06 20:42:00,50.0,-99.9,-100.00,SSE,147,54.0,-999.0,-999,-99.99,,,-99.99,,2013-06-07 02:42:00,
2013-06-06 20:52:00,50.0,-99.9,-100.00,SSE,147,54.0,-999.0,-999,-99.99,,,-99.99,,2013-06-07 02:52:00,
2013-06-06 21:44:00,44.0,-99.9,-100.00,South,185,69.0,-999.0,-999,-99.99,,,0.00,,2013-06-07 03:44:00,
2013-06-06 21:53:00,44.0,-99.9,-100.00,South,185,69.0,-999.0,-999,-99.99,,,0.00,,2013-06-07 03:53:00,
2013-06-06 22:00:00,43.0,-99.9,-100.00,North,-999,-999.0,-999.0,-999,-99.99,,,0.00,,2013-06-07 04:00:00,
2013-06-06 22:54:00,43.0,-99.9,-100.00,North,-999,-999.0,-999.0,-999,-99.99,,,0.00,,2013-06-07 04:54:00,
2013-06-06 23:00:00,41.0,-99.9,-100.00,SSW,212,78.0,-999.0,-999,-99.99,,,0.00,,2013-06-07 05:00:00,
2013-06-06 23:52:00,41.0,-99.9,-100.00,SSW,212,78.0,-999.0,-999,-99.99,,,0.00,,2013-06-07 05:52:00,